Time;durP1;ratioP1;P1;durP2;ratioP2;P2;SDS_P1;SDS_P2;PMS_P1;PMS_P2;Temp;Humidity;BMP_temperature;BMP_pressure;BME280_temperature;BME280_humidity;BME280_pressure;Samples;Min_cycle;Max_cycle;Signal;HPM_P1;HPM_P2
2023/04/09 00:01:08;;;;;;;1999.90;999.90;;;;;;;4.67;100.00;94751.56;5064358;28;20176;-75
2023/04/09 00:03:35;;;;;;;1999.90;999.90;;;;;;;4.70;100.00;94729.19;5064250;28;20176;-74
2023/04/09 00:06:00;;;;;;;1999.90;999.90;;;;;;;4.71;100.00;94742.31;5064059;28;20171;-74
2023/04/09 00:08:26;;;;;;;1999.90;999.90;;;;;;;4.74;100.00;94735.38;5064318;28;20175;-74
2023/04/09 00:10:52;;;;;;;1999.90;999.90;;;;;;;4.75;100.00;94731.50;5064453;28;20183;-74
2023/04/09 00:13:19;;;;;;;1999.90;999.90;;;;;;;4.78;100.00;94722.63;5064466;28;20240;-75
2023/04/09 00:15:45;;;;;;;1999.90;999.90;;;;;;;4.77;100.00;94723.78;5064654;28;20220;-75
2023/04/09 00:18:11;;;;;;;1999.90;999.90;;;;;;;4.77;100.00;94718.38;5064142;28;20176;-74
2023/04/09 00:20:36;;;;;;;1999.90;999.90;;;;;;;4.79;100.00;94716.06;5063541;28;20170;-74
2023/04/09 00:23:01;;;;;;;1999.90;999.90;;;;;;;4.77;100.00;94712.97;5064278;28;20171;-75
2023/04/09 00:25:27;;;;;;;1999.90;999.90;;;;;;;4.77;100.00;94711.03;5063802;28;20178;-74
2023/04/09 00:27:53;;;;;;;1999.90;999.90;;;;;;;4.76;100.00;94701.38;5064317;28;20180;-75
2023/04/09 00:30:19;;;;;;;1999.90;999.90;;;;;;;4.76;100.00;94706.00;5063667;28;20237;-74
2023/04/09 00:32:45;;;;;;;1999.90;999.90;;;;;;;4.76;100.00;94695.97;5063685;28;20195;-74
2023/04/09 00:35:10;;;;;;;1999.90;999.90;;;;;;;4.78;100.00;94695.59;5063710;28;20263;-75
2023/04/09 00:37:36;;;;;;;1999.90;999.90;;;;;;;4.80;100.00;94690.56;5064178;28;20205;-75
2023/04/09 00:40:02;;;;;;;1999.90;999.90;;;;;;;4.81;100.00;94692.13;5063669;28;20176;-75
2023/04/09 00:42:33;;;;;;;1999.90;999.90;;;;;;;4.81;100.00;94689.41;5063633;28;20225;-75
2023/04/09 00:44:59;;;;;;;1999.90;999.90;;;;;;;4.83;100.00;94687.88;5064029;28;20198;-75
2023/04/09 00:47:27;;;;;;;1999.90;999.90;;;;;;;4.84;100.00;94685.97;5063616;28;20167;-75
2023/04/09 00:49:52;;;;;;;1999.90;999.90;;;;;;;4.83;100.00;94681.69;5064261;28;20232;-75
2023/04/09 00:52:18;;;;;;;1999.90;999.90;;;;;;;4.82;100.00;94685.56;5064163;28;20171;-75
2023/04/09 00:54:44;;;;;;;1999.90;999.90;;;;;;;4.84;100.00;94685.97;5063319;28;20226;-74
2023/04/09 00:57:11;;;;;;;1999.90;999.90;;;;;;;4.83;100.00;94690.56;5063983;28;20176;-76
2023/04/09 00:59:37;;;;;;;1999.90;999.90;;;;;;;4.85;100.00;94692.91;5063950;28;20165;-75
2023/04/09 01:02:02;;;;;;;1999.90;999.90;;;;;;;4.85;100.00;94692.91;5063356;28;20174;-75
2023/04/09 01:04:27;;;;;;;1999.90;999.90;;;;;;;4.88;100.00;94692.16;5064038;28;20159;-75
2023/04/09 01:07:19;;;;;;;1999.90;999.90;;;;;;;4.89;100.00;94699.09;5063422;28;20225;-75
2023/04/09 01:09:56;;;;;;;1999.90;999.90;;;;;;;4.88;100.00;94702.97;5063220;28;20169;-76
2023/04/09 01:12:33;;;;;;;1999.90;999.90;;;;;;;4.90;100.00;94703.34;5063866;28;20169;-76
2023/04/09 01:15:17;;;;;;;1999.90;999.90;;;;;;;4.89;100.00;94708.00;5063745;28;20196;-76
2023/04/09 01:17:48;;;;;;;1999.90;999.90;;;;;;;4.87;100.00;94715.69;5063966;28;20250;-79
2023/04/09 01:20:27;;;;;;;1999.90;999.90;;;;;;;4.87;100.00;94712.22;5063709;28;20209;-77
2023/04/09 01:23:18;;;;;;;1999.90;999.90;;;;;;;4.86;100.00;94716.06;5063674;28;20164;-78
2023/04/09 01:26:40;;;;;;;1999.90;999.90;;;;;;;4.87;100.00;94717.63;5063666;28;20173;-77
2023/04/09 01:29:06;;;;;;;1999.90;999.90;;;;;;;4.88;100.00;94719.19;5025858;28;20180;-78
2023/04/09 01:31:37;;;;;;;1999.90;999.90;;;;;;;4.86;100.00;94722.28;5025882;28;20292;-79
2023/04/09 01:34:04;;;;;;;1999.90;999.90;;;;;;;4.86;100.00;94726.91;5047989;28;20331;-78
2023/04/09 01:36:31;;;;;;;1999.90;999.90;;;;;;;4.88;100.00;94713.78;5063113;28;20244;-80
2023/04/09 01:38:56;;;;;;;1999.90;999.90;;;;;;;4.89;100.00;94726.13;5063077;28;20192;-78
2023/04/09 01:41:23;;;;;;;1999.90;999.90;;;;;;;4.91;100.00;94718.41;5063578;28;20175;-78
2023/04/09 01:43:52;;;;;;;1999.90;999.90;;;;;;;4.94;100.00;94723.03;5063282;28;20172;-78
2023/04/09 01:46:19;;;;;;;1999.90;999.90;;;;;;;4.94;100.00;94717.63;5066164;28;20173;-78
2023/04/09 01:48:45;;;;;;;1999.90;999.90;;;;;;;4.95;100.00;94724.63;5066698;28;20178;-78
2023/04/09 01:51:15;;;;;;;1999.90;999.90;;;;;;;4.91;100.00;94718.41;5067120;28;20168;-78
2023/04/09 01:53:41;;;;;;;1999.90;999.90;;;;;;;4.84;100.00;94726.53;5067074;28;20197;-78
2023/04/09 01:56:07;;;;;;;1999.90;999.90;;;;;;;4.84;100.00;94724.56;5066974;28;20169;-77
2023/04/09 01:58:34;;;;;;;1999.90;999.90;;;;;;;4.87;100.00;94723.03;5066449;28;20166;-79
2023/04/09 02:01:20;;;;;;;1999.90;999.90;;;;;;;4.90;100.00;94714.16;5066402;28;20173;-78
2023/04/09 02:03:50;;;;;;;1999.90;999.90;;;;;;;4.90;100.00;94714.16;5066545;28;20164;-78
2023/04/09 02:06:31;;;;;;;1999.90;999.90;;;;;;;4.91;100.00;94710.28;5066333;28;20177;-78
2023/04/09 02:08:59;;;;;;;1999.90;999.90;;;;;;;4.92;100.00;94707.19;5067000;28;20163;-78
2023/04/09 02:11:27;;;;;;;1999.90;999.90;;;;;;;4.91;100.00;94713.00;5066278;28;20168;-76
2023/04/09 02:13:54;;;;;;;1999.90;999.90;;;;;;;4.88;100.00;94708.38;5066067;28;20254;-77
2023/04/09 02:16:20;;;;;;;1999.90;999.90;;;;;;;4.88;100.00;94709.13;5066571;28;20171;-75
2023/04/09 02:18:46;;;;;;;1999.90;999.90;;;;;;;4.85;100.00;94709.13;5066496;28;20172;-76
2023/04/09 02:21:12;;;;;;;1999.90;999.90;;;;;;;4.86;100.00;94706.03;5066011;28;20196;-79
2023/04/09 02:23:37;;;;;;;1999.90;999.90;;;;;;;4.87;100.00;94701.38;5066491;28;20303;-78
2023/04/09 02:26:03;;;;;;;1999.90;999.90;;;;;;;4.87;100.00;94706.81;5066305;28;20176;-77
2023/04/09 02:28:28;;;;;;;1999.90;999.90;;;;;;;4.86;100.00;94705.25;5065764;28;20244;-78
2023/04/09 02:30:53;;;;;;;1999.90;999.90;;;;;;;4.88;100.00;94702.97;5065465;28;20288;-76
2023/04/09 02:33:19;;;;;;;1999.90;999.90;;;;;;;4.89;100.00;94705.28;5066368;28;20212;-77
2023/04/09 02:35:44;;;;;;;1999.90;999.90;;;;;;;4.90;100.00;94700.63;5065737;28;20199;-77
2023/04/09 02:38:14;;;;;;;1999.90;999.90;;;;;;;4.89;100.00;94710.69;5065713;28;20216;-78
2023/04/09 02:40:40;;;;;;;1999.90;999.90;;;;;;;4.89;100.00;94715.31;5065773;28;20168;-78
2023/04/09 02:43:06;;;;;;;1999.90;999.90;;;;;;;4.84;100.00;94713.00;5066305;28;20169;-77
2023/04/09 02:45:31;;;;;;;1999.90;999.90;;;;;;;4.81;100.00;94730.75;5065584;28;20172;-78
2023/04/09 02:47:56;;;;;;;1999.90;999.90;;;;;;;4.77;100.00;94740.03;5066026;28;20227;-78
2023/04/09 02:50:22;;;;;;;1999.90;999.90;;;;;;;4.77;100.00;94734.63;5065706;28;20167;-79
2023/04/09 02:52:47;;;;;;;1999.90;999.90;;;;;;;4.77;100.00;94731.91;5065461;28;20171;-77
2023/04/09 02:55:13;;;;;;;1999.90;999.90;;;;;;;4.77;100.00;94729.22;5065424;28;20263;-77
2023/04/09 02:57:38;;;;;;;1999.90;999.90;;;;;;;4.79;100.00;94732.28;5065665;28;20227;-77
2023/04/09 03:00:04;;;;;;;1999.90;999.90;;;;;;;4.79;100.00;94732.28;5065735;28;20163;-76
2023/04/09 03:02:30;;;;;;;1999.90;999.90;;;;;;;4.82;100.00;94732.31;5065637;28;20232;-76
2023/04/09 03:04:55;;;;;;;1999.90;999.90;;;;;;;4.83;100.00;94733.06;5065270;28;20245;-77
2023/04/09 03:07:21;;;;;;;1999.90;999.90;;;;;;;4.86;100.00;94724.19;5065140;28;20165;-77
2023/04/09 03:09:46;;;;;;;1999.90;999.90;;;;;;;4.83;100.00;94723.03;5065628;28;20167;-78
2023/04/09 03:12:12;;;;;;;1999.90;999.90;;;;;;;4.83;100.00;94716.84;5065063;28;20459;-78
2023/04/09 03:14:37;;;;;;;1999.90;999.90;;;;;;;4.79;100.00;94729.59;5064932;28;20195;-75
2023/04/09 03:17:02;;;;;;;1999.90;999.90;;;;;;;4.77;100.00;94724.56;5065068;28;20200;-75
2023/04/09 03:19:29;;;;;;;1999.90;999.90;;;;;;;4.78;100.00;94722.63;5065058;28;20170;-74
2023/04/09 03:21:55;;;;;;;1999.90;999.90;;;;;;;4.75;100.00;94720.69;5065188;28;20167;-74
2023/04/09 03:24:20;;;;;;;1999.90;999.90;;;;;;;4.73;100.00;94728.44;5064872;28;20205;-75
2023/04/09 03:26:45;;;;;;;1999.90;999.90;;;;;;;4.68;100.00;94737.66;5064981;28;20171;-76
2023/04/09 03:29:11;;;;;;;1999.90;999.90;;;;;;;4.64;100.00;94725.28;5064725;28;20200;-75
2023/04/09 03:31:36;;;;;;;1999.90;999.90;;;;;;;4.64;100.00;94730.69;5064469;28;20217;-78
2023/04/09 03:34:02;;;;;;;1999.90;999.90;;;;;;;4.66;100.00;94734.56;5064675;28;20204;-78
2023/04/09 03:36:27;;;;;;;1999.90;999.90;;;;;;;4.62;100.00;94744.59;5064351;28;20173;-77
2023/04/09 03:38:52;;;;;;;1999.90;999.90;;;;;;;4.54;100.00;94747.66;5064571;28;20211;-77
2023/04/09 03:41:18;;;;;;;1999.90;999.90;;;;;;;4.46;100.00;94737.97;5065075;28;20171;-77
2023/04/09 03:43:43;;;;;;;1999.90;999.90;;;;;;;4.36;100.00;94746.78;5064462;28;20204;-77
2023/04/09 03:46:12;;;;;;;1999.90;999.90;;;;;;;4.28;100.00;94750.63;5064441;28;20166;-76
2023/04/09 03:48:38;;;;;;;1999.90;999.90;;;;;;;4.27;100.00;94743.69;5064565;28;20168;-77
2023/04/09 03:51:03;;;;;;;1999.90;999.90;;;;;;;4.22;100.00;94744.03;5064451;28;20167;-75
2023/04/09 03:53:28;;;;;;;1999.90;999.90;;;;;;;4.16;100.00;94737.44;5064109;28;20173;-76
2023/04/09 03:55:54;;;;;;;1999.90;999.90;;;;;;;4.09;100.00;94737.41;5064324;28;20177;-75
2023/04/09 03:58:19;;;;;;;1999.90;999.90;;;;;;;4.05;100.00;94731.22;5064171;28;20173;-74
2023/04/09 04:00:45;;;;;;;1999.90;999.90;;;;;;;4.00;100.00;94731.56;5064657;28;20166;-77
2023/04/09 04:03:11;;;;;;;1999.90;999.90;;;;;;;3.97;100.00;94726.94;5063997;28;20166;-78
2023/04/09 04:05:36;;;;;;;1999.90;999.90;;;;;;;3.90;100.00;94734.97;5064335;28;20174;-79
2023/04/09 04:08:01;;;;;;;1999.90;999.90;;;;;;;3.85;100.00;94721.84;5063486;28;20167;-79
2023/04/09 04:10:27;;;;;;;1999.90;999.90;;;;;;;3.81;100.00;94718.31;5064098;28;20170;-79
2023/04/09 04:12:52;;;;;;;1999.90;999.90;;;;;;;3.78;100.00;94716.41;5063879;28;20170;-77
2023/04/09 04:15:19;;;;;;;1999.90;999.90;;;;;;;3.75;100.00;94711.75;5064325;28;20221;-77
2023/04/09 04:17:44;;;;;;;1999.90;999.90;;;;;;;3.70;100.00;94720.19;5064246;28;20181;-78
2023/04/09 04:20:10;;;;;;;1999.90;999.90;;;;;;;3.68;100.00;94719.81;5064383;28;20166;-77
2023/04/09 04:22:35;;;;;;;1999.90;999.90;;;;;;;3.68;100.00;94722.50;5063813;28;20173;-79
2023/04/09 04:25:02;;;;;;;1999.90;999.90;;;;;;;3.68;100.00;94712.44;5063760;28;20208;-77
2023/04/09 04:27:27;;;;;;;1999.90;999.90;;;;;;;3.68;100.00;94712.44;5063736;28;20169;-78
2023/04/09 04:29:53;;;;;;;1999.90;999.90;;;;;;;3.71;100.00;94710.94;5063681;28;20226;-78
2023/04/09 04:32:18;;;;;;;1999.90;999.90;;;;;;;3.75;100.00;94711.75;5063683;28;20178;-77
2023/04/09 04:34:47;;;;;;;1999.90;999.90;;;;;;;3.76;100.00;94705.19;5063901;28;20213;-77
2023/04/09 04:37:13;;;;;;;1999.90;999.90;;;;;;;3.75;100.00;94693.59;5063596;28;20169;-76
2023/04/09 04:39:38;;;;;;;1999.90;999.90;;;;;;;3.77;100.00;94693.22;5063593;28;20216;-75
2023/04/09 04:42:03;;;;;;;1999.90;999.90;;;;;;;3.81;100.00;94702.91;5063646;28;20202;-75
2023/04/09 04:44:29;;;;;;;1999.90;999.90;;;;;;;3.88;100.00;94699.47;5063533;28;20176;-74
2023/04/09 04:46:54;;;;;;;1999.90;999.90;;;;;;;3.88;100.00;94689.44;5063414;28;20224;-77
2023/04/09 04:49:20;;;;;;;1999.90;999.90;;;;;;;3.94;100.00;94703.38;5064005;28;20169;-77
2023/04/09 04:51:45;;;;;;;1999.90;999.90;;;;;;;3.99;100.00;94697.59;5063364;28;20215;-77
2023/04/09 04:54:10;;;;;;;1999.90;999.90;;;;;;;4.04;100.00;94689.16;5063301;28;20239;-77
2023/04/09 04:56:36;;;;;;;1999.90;999.90;;;;;;;4.08;100.00;94681.84;5063530;28;20181;-77
2023/04/09 04:59:01;;;;;;;1999.90;999.90;;;;;;;4.12;100.00;94677.22;5063970;28;20178;-77
2023/04/09 05:01:26;;;;;;;1999.90;999.90;;;;;;;4.15;100.00;94679.16;5063913;28;20171;-75
2023/04/09 05:03:52;;;;;;;1999.90;999.90;;;;;;;4.19;100.00;94683.41;5063652;28;20184;-74
2023/04/09 05:06:17;;;;;;;1999.90;999.90;;;;;;;4.26;100.00;94704.31;5063921;28;20173;-75
2023/04/09 05:08:43;;;;;;;1999.90;999.90;;;;;;;4.17;100.00;94711.97;5063362;28;20173;-75
2023/04/09 05:11:11;;;;;;;1999.90;999.90;;;;;;;4.10;100.00;94722.72;5063920;28;20169;-77
2023/04/09 05:13:36;;;;;;;1999.90;999.90;;;;;;;4.03;100.00;94728.09;5063702;28;20170;-77
2023/04/09 05:16:02;;;;;;;1999.90;999.90;;;;;;;3.97;100.00;94729.63;5063293;28;20216;-79
2023/04/09 05:18:27;;;;;;;1999.90;999.90;;;;;;;4.01;100.00;94733.13;5063563;28;20215;-78
2023/04/09 05:20:53;;;;;;;1999.90;999.90;;;;;;;4.04;100.00;94735.81;5065545;28;20174;-76
2023/04/09 05:23:18;;;;;;;1999.90;999.90;;;;;;;4.03;100.00;94738.91;5067414;28;20179;-75
2023/04/09 05:25:43;;;;;;;1999.90;999.90;;;;;;;4.08;100.00;94752.06;5067586;28;20182;-77
2023/04/09 05:28:10;;;;;;;1999.90;999.90;;;;;;;4.09;100.00;94748.22;5067086;28;20419;-75
2023/04/09 05:30:35;;;;;;;1999.90;999.90;;;;;;;4.11;100.00;94759.44;5066690;28;20294;-75
2023/04/09 05:33:01;;;;;;;1999.90;999.90;;;;;;;4.56;100.00;94742.66;5067017;28;20189;-76
2023/04/09 05:35:26;;;;;;;1999.90;999.90;;;;;;;5.17;100.00;94705.31;5067602;28;20213;-75
2023/04/09 05:37:51;;;;;;;1999.90;999.90;;;;;;;5.50;100.00;94706.88;5066726;28;20170;-77
2023/04/09 05:40:17;;;;;;;1999.90;999.90;;;;;;;6.39;100.00;94682.72;5066867;28;20169;-78
2023/04/09 05:42:42;;;;;;;1999.90;999.90;;;;;;;7.02;100.00;94684.31;5066514;28;20238;-76
2023/04/09 05:45:08;;;;;;;1999.90;999.90;;;;;;;7.48;100.00;94736.38;5066738;28;20201;-77
2023/04/09 05:47:33;;;;;;;1999.90;999.90;;;;;;;8.23;100.00;94784.28;5066776;28;20277;-77
2023/04/09 05:49:59;;;;;;;1999.90;999.90;;;;;;;9.02;100.00;94933.63;5067179;28;20186;-77
2023/04/09 05:52:25;;;;;;;1999.90;999.90;;;;;;;9.48;100.00;95235.66;5066670;28;20174;-76
2023/04/09 05:54:50;;;;;;;1999.90;999.90;;;;;;;10.17;100.00;95500.19;5066541;28;20230;-76
2023/04/09 05:57:16;;;;;;;1999.90;999.90;;;;;;;10.80;100.00;95685.53;5066677;28;20208;-76
2023/04/09 05:59:41;;;;;;;1999.90;999.90;;;;;;;11.26;100.00;95795.44;5066427;28;20177;-76
2023/04/09 06:02:06;;;;;;;1999.90;999.90;;;;;;;11.82;100.00;95839.72;5066442;28;20174;-77
2023/04/09 06:04:32;;;;;;;1999.90;999.90;;;;;;;11.62;100.00;95859.78;5066749;28;20174;-78
2023/04/09 06:06:59;;;;;;;1999.90;999.90;;;;;;;11.55;100.00;95873.44;5066680;28;20170;-77
2023/04/09 06:09:26;;;;;;;1999.90;999.90;;;;;;;11.96;100.00;95883.44;5067255;28;20166;-76
2023/04/09 06:11:51;;;;;;;1999.90;999.90;;;;;;;11.96;100.00;95899.06;5066220;28;20174;-77
2023/04/09 06:14:17;;;;;;;1999.90;999.90;;;;;;;11.80;100.00;95913.22;5066005;28;20240;-79
2023/04/09 06:16:42;;;;;;;1999.90;999.90;;;;;;;11.79;100.00;95905.41;5066460;28;20240;-81
2023/04/09 06:19:08;;;;;;;1999.90;999.90;;;;;;;12.13;100.00;95914.63;5065760;28;20169;-79
2023/04/09 06:21:33;;;;;;;1999.90;999.90;;;;;;;12.18;100.00;95922.41;5066403;28;20249;-80
2023/04/09 06:23:58;;;;;;;1999.90;999.90;;;;;;;12.75;100.00;95924.34;5066579;28;20189;-78
2023/04/09 06:26:24;;;;;;;1999.90;999.90;;;;;;;13.28;100.00;95935.66;5066090;28;20242;-79
2023/04/09 06:28:49;;;;;;;1999.90;999.90;;;;;;;13.67;100.00;95934.47;5065920;28;20166;-77
2023/04/09 06:31:15;;;;;;;1999.90;999.90;;;;;;;14.75;100.00;95929.50;5065516;28;20288;-77
2023/04/09 06:33:40;;;;;;;1999.90;999.90;;;;;;;14.59;100.00;95932.88;5065756;28;20207;-79
2023/04/09 06:36:06;;;;;;;1999.90;999.90;;;;;;;15.05;100.00;95938.41;5066356;28;20170;-78
2023/04/09 06:38:32;;;;;;;1999.90;999.90;;;;;;;14.53;100.00;95940.03;5065778;28;20169;-78
2023/04/09 06:40:57;;;;;;;1999.90;999.90;;;;;;;14.85;100.00;95943.09;5065792;28;20170;-80
2023/04/09 06:43:22;;;;;;;1999.90;999.90;;;;;;;15.42;100.00;95938.22;5066331;28;20295;-77
2023/04/09 06:45:48;;;;;;;1999.90;999.90;;;;;;;15.60;100.00;95941.44;5065906;28;20186;-76
2023/04/09 06:48:13;;;;;;;1999.90;999.90;;;;;;;15.57;100.00;95946.97;5066196;28;20170;-75
2023/04/09 06:50:39;;;;;;;1999.90;999.90;;;;;;;16.17;100.00;95947.34;5065587;28;20166;-75
2023/04/09 06:53:05;;;;;;;1999.90;999.90;;;;;;;16.48;100.00;95945.16;5065530;28;20166;-78
2023/04/09 06:55:31;;;;;;;1999.90;999.90;;;;;;;16.99;100.00;95949.09;5065422;28;20201;-77
2023/04/09 06:57:56;;;;;;;1999.90;999.90;;;;;;;16.99;100.00;95949.09;5065381;28;20177;-73
2023/04/09 07:00:22;;;;;;;1999.90;999.90;;;;;;;16.99;100.00;95949.09;5065642;28;20311;-74
2023/04/09 07:02:48;;;;;;;1999.90;999.90;;;;;;;16.99;100.00;95949.09;5065342;28;20170;-74
2023/04/09 07:05:13;;;;;;;1999.90;999.90;;;;;;;16.99;100.00;95949.09;5065784;28;20213;-75
2023/04/09 07:07:38;;;;;;;1999.90;999.90;;;;;;;16.99;100.00;95949.09;5065741;28;20178;-75
2023/04/09 07:10:05;;;;;;;1999.90;999.90;;;;;;;16.99;100.00;95949.09;5065704;28;20170;-72
2023/04/09 07:12:32;;;;;;;1999.90;999.90;;;;;;;16.99;100.00;95949.09;5065108;28;20166;-74
2023/04/09 07:14:58;;;;;;;1999.90;999.90;;;;;;;16.99;100.00;95949.09;5064655;28;20228;-72
2023/04/09 07:17:23;;;;;;;1999.90;999.90;;;;;;;16.99;100.00;95949.09;5065340;28;20181;-75
2023/04/09 07:19:50;;;;;;;1999.90;999.90;;;;;;;18.22;72.20;95968.75;5065216;28;20161;-74
2023/04/09 07:22:16;;;;;;;1999.90;999.90;;;;;;;18.47;70.49;95968.84;5065333;28;20170;-74
2023/04/09 07:24:41;;;;;;;1999.90;999.90;;;;;;;16.96;81.24;95966.50;5065331;28;20173;-74
2023/04/09 07:27:06;;;;;;;1999.90;999.90;;;;;;;18.21;73.04;95958.91;5064926;28;20174;-73
2023/04/09 07:29:32;;;;;;;1999.90;999.90;;;;;;;17.42;74.35;95966.19;5064501;28;20178;-73
2023/04/09 07:31:59;;;;;;;1999.90;999.90;;;;;;;18.09;70.46;95970.69;5065168;28;20174;-73
2023/04/09 07:34:25;;;;;;;1999.90;999.90;;;;;;;17.48;74.55;95959.69;5064595;28;20216;-73
2023/04/09 07:36:51;;;;;;;1999.90;999.90;;;;;;;17.64;72.94;95967.19;5064643;28;20170;-73
2023/04/09 07:39:17;;;;;;;1999.90;999.90;;;;;;;18.70;68.43;95963.00;5065169;28;20240;-73
2023/04/09 07:41:42;;;;;;;1999.90;999.90;;;;;;;18.25;65.65;95962.34;5065094;28;20174;-72
2023/04/09 07:44:08;;;;;;;1999.90;999.90;;;;;;;19.45;61.00;95966.53;5064069;28;20174;-73
2023/04/09 07:46:33;;;;;;;1999.90;999.90;;;;;;;18.48;63.22;95973.16;5064985;28;20281;-72
2023/04/09 07:48:59;;;;;;;1999.90;999.90;;;;;;;18.25;68.68;95962.34;5064405;28;20202;-74
2023/04/09 07:51:24;;;;;;;1999.90;999.90;;;;;;;17.93;71.24;95965.22;5064410;28;20208;-73
2023/04/09 07:53:50;;;;;;;1999.90;999.90;;;;;;;17.36;65.75;95959.59;5063843;28;20197;-73
2023/04/09 07:56:15;;;;;;;1999.90;999.90;;;;;;;17.78;65.46;95961.28;5064772;28;20205;-71
2023/04/09 07:58:40;;;;;;;1999.90;999.90;;;;;;;18.37;64.71;95965.19;5064582;28;20174;-73
2023/04/09 08:01:06;;;;;;;1999.90;999.90;;;;;;;17.23;69.34;95969.81;5064154;28;20204;-74
2023/04/09 08:03:31;;;;;;;1999.90;999.90;;;;;;;18.04;69.21;95976.78;5064661;28;20196;-75
2023/04/09 08:05:56;;;;;;;1999.90;999.90;;;;;;;16.79;68.08;95973.97;5064175;28;20422;-73
2023/04/09 08:08:21;;;;;;;1999.90;999.90;;;;;;;17.82;68.67;95967.50;5064926;28;20174;-74
2023/04/09 08:10:47;;;;;;;1999.90;999.90;;;;;;;18.98;67.73;95953.81;5064603;28;20173;-74
2023/04/09 08:13:12;;;;;;;1999.90;999.90;;;;;;;20.04;58.31;95964.91;5064064;28;20177;-76
2023/04/09 08:15:38;;;;;;;1999.90;999.90;;;;;;;20.56;51.50;95968.53;5064033;28;20210;-77
2023/04/09 08:18:04;;;;;;;1999.90;999.90;;;;;;;18.06;58.82;95977.13;5064479;28;20177;-76
2023/04/09 08:20:31;;;;;;;1999.90;999.90;;;;;;;18.43;61.04;95973.72;5064092;28;20248;-76
2023/04/09 08:22:57;;;;;;;1999.90;999.90;;;;;;;16.76;67.50;95971.31;5064780;28;20169;-74
2023/04/09 08:25:23;;;;;;;1999.90;999.90;;;;;;;18.03;66.60;95973.22;5064948;28;20181;-75
2023/04/09 08:27:48;;;;;;;1999.90;999.90;;;;;;;18.49;61.06;95978.25;5064455;28;20174;-74
2023/04/09 08:30:14;;;;;;;1999.90;999.90;;;;;;;17.58;63.51;95974.44;5064123;28;20228;-74
2023/04/09 08:32:44;;;;;;;1999.90;999.90;;;;;;;17.81;60.54;95985.31;5064334;28;20205;-75
2023/04/09 08:35:14;;;;;;;1999.90;999.90;;;;;;;18.14;61.09;95978.47;5064596;28;20277;-76
2023/04/09 08:38:03;;;;;;;1999.90;999.90;;;;;;;18.74;55.36;95988.56;5064024;28;20174;-77
2023/04/09 08:40:36;;;;;;;1999.90;999.90;;;;;;;17.99;59.58;95985.59;5063257;28;20186;-76
2023/04/09 08:43:07;;;;;;;1999.90;999.90;;;;;;;17.49;59.65;95977.84;5063827;28;20249;-73
2023/04/09 08:45:33;;;;;;;1999.90;999.90;;;;;;;16.04;68.30;95982.28;5064165;28;20208;-74
2023/04/09 08:48:09;;;;;;;1999.90;999.90;;;;;;;18.02;63.47;95973.66;5063612;28;20201;-73
2023/04/09 08:50:35;;;;;;;1999.90;999.90;;;;;;;19.04;58.48;95963.91;5063737;28;20173;-74
2023/04/09 08:53:05;;;;;;;1999.90;999.90;;;;;;;19.52;56.75;95976.59;5063617;28;20177;-73
2023/04/09 08:55:33;;;;;;;1999.90;999.90;;;;;;;19.33;52.68;95992.25;5067071;28;20226;-74
2023/04/09 08:57:59;;;;;;;1999.90;999.90;;;;;;;17.54;59.76;95996.66;5068099;28;20178;-73
2023/04/09 09:00:25;;;;;;;1999.90;999.90;;;;;;;15.95;72.01;95995.81;5067853;28;20166;-74
2023/04/09 09:03:07;;;;;;;1999.90;999.90;;;;;;;15.35;78.36;95990.63;5067519;28;20173;-74
2023/04/09 09:05:44;;;;;;;1999.90;999.90;;;;;;;14.71;84.53;95989.28;5068085;28;20208;-74
2023/04/09 09:08:30;;;;;;;1999.90;999.90;;;;;;;12.74;100.00;95988.59;5068113;28;20170;-74
2023/04/09 09:10:55;;;;;;;1999.90;999.90;;;;;;;12.33;100.00;95989.63;5066976;28;20178;-73
2023/04/09 09:13:25;;;;;;;1999.90;999.90;;;;;;;12.21;100.00;95992.81;5068061;28;20174;-73
2023/04/09 09:16:10;;;;;;;1999.90;999.90;;;;;;;11.15;100.00;95995.00;5066934;28;20202;-72
2023/04/09 09:18:42;;;;;;;1999.90;999.90;;;;;;;12.93;100.00;95995.50;5067818;28;20169;-73
2023/04/09 09:21:18;;;;;;;1999.90;999.90;;;;;;;13.47;100.00;95989.16;5067447;28;20176;-72
2023/04/09 09:23:49;;;;;;;1999.90;999.90;;;;;;;12.60;100.00;95994.16;5067762;28;20164;-73
2023/04/09 09:26:19;;;;;;;1999.90;999.90;;;;;;;12.15;100.00;95999.88;5067571;28;20212;-72
2023/04/09 09:28:47;;;;;;;1999.90;999.90;;;;;;;11.26;100.00;95992.28;5067567;28;20170;-73
2023/04/09 09:31:12;;;;;;;1999.90;999.90;;;;;;;10.93;100.00;95995.44;5067596;28;20241;-73
2023/04/09 09:33:38;;;;;;;1999.90;999.90;;;;;;;11.35;100.00;96007.13;5067440;28;20170;-73
2023/04/09 09:36:04;;;;;;;1999.90;999.90;;;;;;;12.65;100.00;95992.97;5067323;28;20209;-74
2023/04/09 09:38:31;;;;;;;1999.90;999.90;;;;;;;12.88;100.00;95987.69;5067401;28;20173;-74
2023/04/09 09:40:56;;;;;;;1999.90;999.90;;;;;;;12.45;100.00;95991.88;5067415;28;20231;-73
2023/04/09 09:43:22;;;;;;;1999.90;999.90;;;;;;;12.44;100.00;95979.38;5067441;28;20178;-73
2023/04/09 09:45:48;;;;;;;1999.90;999.90;;;;;;;13.54;100.00;95980.88;5067513;28;20181;-73
2023/04/09 09:48:14;;;;;;;1999.90;999.90;;;;;;;13.00;100.00;95989.97;5066863;28;20174;-72
2023/04/09 09:50:41;;;;;;;1999.90;999.90;;;;;;;12.92;100.00;95989.22;5066771;28;20174;-72
2023/04/09 09:53:08;;;;;;;1999.90;999.90;;;;;;;13.52;100.00;95986.00;5066567;28;20174;-73
2023/04/09 09:55:38;;;;;;;1999.90;999.90;;;;;;;13.64;100.00;95987.44;5067346;28;20237;-71
2023/04/09 09:58:16;;;;;;;1999.90;999.90;;;;;;;12.69;100.00;95985.47;5066629;28;20181;-72
2023/04/09 10:00:45;;;;;;;1999.90;999.90;;;;;;;12.03;100.00;96008.53;5067210;28;20169;-71
2023/04/09 10:03:18;;;;;;;1999.90;999.90;;;;;;;12.32;100.00;95997.03;5066425;28;20173;-71
2023/04/09 10:05:44;;;;;;;1999.90;999.90;;;;;;;12.84;100.00;95992.41;5066076;28;20178;-72
2023/04/09 10:08:11;;;;;;;1999.90;999.90;;;;;;;12.38;100.00;95980.97;5066409;28;20173;-71
2023/04/09 10:10:38;;;;;;;1999.90;999.90;;;;;;;12.47;100.00;95987.59;5066973;28;20207;-71
2023/04/09 10:13:06;;;;;;;1999.90;999.90;;;;;;;12.54;100.00;95981.28;5066378;28;20201;-71
2023/04/09 10:15:31;;;;;;;1999.90;999.90;;;;;;;11.93;100.00;95992.91;5066671;28;20205;-70
2023/04/09 10:17:57;;;;;;;1999.90;999.90;;;;;;;11.15;100.00;95978.59;5066102;28;20249;-71
2023/04/09 10:20:35;;;;;;;1999.90;999.90;;;;;;;11.74;100.00;95982.44;5066983;28;20174;-71
2023/04/09 10:23:08;;;;;;;1999.90;999.90;;;;;;;12.77;100.00;95987.78;5066626;28;20177;-70
2023/04/09 10:25:34;;;;;;;1999.90;999.90;;;;;;;12.40;100.00;95992.31;5066262;28;20185;-71
2023/04/09 10:28:01;;;;;;;1999.90;999.90;;;;;;;12.35;100.00;95981.78;5065893;28;20288;-71
2023/04/09 10:30:34;;;;;;;1999.90;999.90;;;;;;;13.05;100.00;95981.34;5066059;28;20225;-71
2023/04/09 10:33:10;;;;;;;1999.90;999.90;;;;;;;12.99;100.00;95982.94;5065877;28;20240;-69
2023/04/09 10:35:35;;;;;;;1999.90;999.90;;;;;;;12.35;100.00;95981.78;5065839;28;20209;-72
2023/04/09 10:38:01;;;;;;;1999.90;999.90;;;;;;;12.14;100.00;95987.38;5066509;28;20173;-72
2023/04/09 10:40:27;;;;;;;1999.90;999.90;;;;;;;12.00;100.00;95976.47;5066216;28;20249;-72
2023/04/09 10:42:54;;;;;;;1999.90;999.90;;;;;;;12.13;100.00;95977.59;5065211;28;20245;-72
2023/04/09 10:45:20;;;;;;;1999.90;999.90;;;;;;;12.61;100.00;95984.75;5065667;28;20178;-72
2023/04/09 10:47:50;;;;;;;1999.90;999.90;;;;;;;12.29;100.00;95986.13;5065583;28;20181;-72
2023/04/09 10:50:26;;;;;;;1999.90;999.90;;;;;;;11.80;100.00;95983.59;5065642;28;20228;-72
2023/04/09 10:52:58;;;;;;;1999.90;999.90;;;;;;;11.42;100.00;95976.22;5066067;28;20245;-73